sensor_id;sensor_type;location;lat;lon;timestamp;temperature;humidity
15617;DHT22;7908;51.688;7.130;2023-07-28T00:02:07;17.40;99.90
15617;DHT22;7908;51.688;7.130;2023-07-28T00:04:38;17.40;99.90
15617;DHT22;7908;51.688;7.130;2023-07-28T00:07:06;17.40;99.90
15617;DHT22;7908;51.688;7.130;2023-07-28T00:09:35;17.40;99.90
15617;DHT22;7908;51.688;7.130;2023-07-28T00:12:04;17.40;99.90
15617;DHT22;7908;51.688;7.130;2023-07-28T00:14:33;17.40;99.90
15617;DHT22;7908;51.688;7.130;2023-07-28T00:17:03;17.40;99.90
15617;DHT22;7908;51.688;7.130;2023-07-28T00:19:31;17.30;99.90
15617;DHT22;7908;51.688;7.130;2023-07-28T00:22:00;17.30;99.90
15617;DHT22;7908;51.688;7.130;2023-07-28T00:24:28;17.40;99.90
15617;DHT22;7908;51.688;7.130;2023-07-28T00:26:57;17.40;99.90
15617;DHT22;7908;51.688;7.130;2023-07-28T00:29:25;17.40;99.90
15617;DHT22;7908;51.688;7.130;2023-07-28T00:31:54;17.40;99.90
15617;DHT22;7908;51.688;7.130;2023-07-28T00:34:24;17.40;99.90
15617;DHT22;7908;51.688;7.130;2023-07-28T00:36:52;17.30;99.90
15617;DHT22;7908;51.688;7.130;2023-07-28T00:39:20;17.30;99.90
15617;DHT22;7908;51.688;7.130;2023-07-28T00:41:50;17.30;99.90
15617;DHT22;7908;51.688;7.130;2023-07-28T00:44:18;17.20;99.90
15617;DHT22;7908;51.688;7.130;2023-07-28T00:46:47;17.20;99.90
15617;DHT22;7908;51.688;7.130;2023-07-28T00:49:16;17.30;99.90
15617;DHT22;7908;51.688;7.130;2023-07-28T00:51:46;17.30;99.90
15617;DHT22;7908;51.688;7.130;2023-07-28T00:54:15;17.20;99.90
15617;DHT22;7908;51.688;7.130;2023-07-28T00:56:44;17.30;99.90
15617;DHT22;7908;51.688;7.130;2023-07-28T00:59:13;17.30;99.90
15617;DHT22;7908;51.688;7.130;2023-07-28T01:01:41;17.30;99.90
15617;DHT22;7908;51.688;7.130;2023-07-28T01:04:10;17.30;99.90
15617;DHT22;7908;51.688;7.130;2023-07-28T01:06:48;17.30;99.90
15617;DHT22;7908;51.688;7.130;2023-07-28T01:09:21;17.30;99.90
15617;DHT22;7908;51.688;7.130;2023-07-28T01:11:54;17.30;99.90
15617;DHT22;7908;51.688;7.130;2023-07-28T01:14:23;17.20;99.90
15617;DHT22;7908;51.688;7.130;2023-07-28T01:16:52;17.30;99.90
15617;DHT22;7908;51.688;7.130;2023-07-28T01:19:21;17.30;99.90
15617;DHT22;7908;51.688;7.130;2023-07-28T01:21:57;17.20;99.90
15617;DHT22;7908;51.688;7.130;2023-07-28T01:24:41;17.20;99.90
15617;DHT22;7908;51.688;7.130;2023-07-28T01:27:11;17.20;99.90
15617;DHT22;7908;51.688;7.130;2023-07-28T01:29:40;17.20;99.90
15617;DHT22;7908;51.688;7.130;2023-07-28T01:32:10;17.30;99.90
15617;DHT22;7908;51.688;7.130;2023-07-28T01:34:39;17.20;99.90
15617;DHT22;7908;51.688;7.130;2023-07-28T01:37:08;17.30;99.90
15617;DHT22;7908;51.688;7.130;2023-07-28T01:39:36;17.20;99.90
15617;DHT22;7908;51.688;7.130;2023-07-28T01:42:05;17.30;99.90
15617;DHT22;7908;51.688;7.130;2023-07-28T01:44:35;17.30;99.90
15617;DHT22;7908;51.688;7.130;2023-07-28T01:47:04;17.30;99.90
15617;DHT22;7908;51.688;7.130;2023-07-28T01:49:32;17.30;99.90
15617;DHT22;7908;51.688;7.130;2023-07-28T01:52:01;17.30;99.90
15617;DHT22;7908;51.688;7.130;2023-07-28T01:54:30;17.30;99.90
15617;DHT22;7908;51.688;7.130;2023-07-28T01:56:59;17.30;99.90
15617;DHT22;7908;51.688;7.130;2023-07-28T01:59:27;17.30;99.90
15617;DHT22;7908;51.688;7.130;2023-07-28T02:01:57;17.30;99.90
15617;DHT22;7908;51.688;7.130;2023-07-28T02:04:26;17.30;99.90
15617;DHT22;7908;51.688;7.130;2023-07-28T02:06:54;17.30;99.90
15617;DHT22;7908;51.688;7.130;2023-07-28T02:09:23;17.30;99.90
15617;DHT22;7908;51.688;7.130;2023-07-28T02:11:51;17.30;99.90
15617;DHT22;7908;51.688;7.130;2023-07-28T02:14:20;17.30;99.90
15617;DHT22;7908;51.688;7.130;2023-07-28T02:16:49;17.20;99.90
15617;DHT22;7908;51.688;7.130;2023-07-28T02:19:19;17.20;99.90
15617;DHT22;7908;51.688;7.130;2023-07-28T02:21:47;17.20;99.90
15617;DHT22;7908;51.688;7.130;2023-07-28T02:24:16;17.20;99.90
15617;DHT22;7908;51.688;7.130;2023-07-28T02:26:45;17.30;99.90
15617;DHT22;7908;51.688;7.130;2023-07-28T02:29:13;17.30;99.90
15617;DHT22;7908;51.688;7.130;2023-07-28T02:31:42;17.30;99.90
15617;DHT22;7908;51.688;7.130;2023-07-28T02:34:10;17.30;99.90
15617;DHT22;7908;51.688;7.130;2023-07-28T02:36:40;17.30;99.90
15617;DHT22;7908;51.688;7.130;2023-07-28T02:39:08;17.30;99.90
15617;DHT22;7908;51.688;7.130;2023-07-28T02:41:37;17.30;99.90
15617;DHT22;7908;51.688;7.130;2023-07-28T02:44:05;17.30;99.90
15617;DHT22;7908;51.688;7.130;2023-07-28T02:46:34;17.30;99.90
15617;DHT22;7908;51.688;7.130;2023-07-28T02:49:04;17.30;99.90
15617;DHT22;7908;51.688;7.130;2023-07-28T02:51:33;17.30;99.90
15617;DHT22;7908;51.688;7.130;2023-07-28T02:54:04;17.30;99.90
15617;DHT22;7908;51.688;7.130;2023-07-28T02:56:33;17.30;99.90
15617;DHT22;7908;51.688;7.130;2023-07-28T02:59:04;17.30;99.90
15617;DHT22;7908;51.688;7.130;2023-07-28T03:01:33;17.30;99.90
15617;DHT22;7908;51.688;7.130;2023-07-28T03:04:02;17.30;99.90
15617;DHT22;7908;51.688;7.130;2023-07-28T03:06:31;17.30;99.90
15617;DHT22;7908;51.688;7.130;2023-07-28T03:09:00;17.30;99.90
15617;DHT22;7908;51.688;7.130;2023-07-28T03:11:30;17.30;99.90
15617;DHT22;7908;51.688;7.130;2023-07-28T03:13:58;17.30;99.90
15617;DHT22;7908;51.688;7.130;2023-07-28T03:16:27;17.30;99.90
15617;DHT22;7908;51.688;7.130;2023-07-28T03:18:56;17.20;99.90
15617;DHT22;7908;51.688;7.130;2023-07-28T03:21:24;17.20;99.90
15617;DHT22;7908;51.688;7.130;2023-07-28T03:23:52;17.30;99.90
15617;DHT22;7908;51.688;7.130;2023-07-28T03:26:21;17.30;99.90
15617;DHT22;7908;51.688;7.130;2023-07-28T03:28:51;17.30;99.90
15617;DHT22;7908;51.688;7.130;2023-07-28T03:31:19;17.30;99.90
15617;DHT22;7908;51.688;7.130;2023-07-28T03:33:48;17.30;99.90
15617;DHT22;7908;51.688;7.130;2023-07-28T03:36:16;17.30;99.90
15617;DHT22;7908;51.688;7.130;2023-07-28T03:38:46;17.30;99.90
15617;DHT22;7908;51.688;7.130;2023-07-28T03:41:15;17.30;99.90
15617;DHT22;7908;51.688;7.130;2023-07-28T03:43:43;17.30;99.90
15617;DHT22;7908;51.688;7.130;2023-07-28T03:46:13;17.20;99.90
15617;DHT22;7908;51.688;7.130;2023-07-28T03:48:41;17.30;99.90
15617;DHT22;7908;51.688;7.130;2023-07-28T03:51:10;17.30;99.90
15617;DHT22;7908;51.688;7.130;2023-07-28T03:53:38;17.20;99.90
15617;DHT22;7908;51.688;7.130;2023-07-28T03:56:07;17.30;99.90
15617;DHT22;7908;51.688;7.130;2023-07-28T03:58:35;17.30;99.90
15617;DHT22;7908;51.688;7.130;2023-07-28T04:01:04;17.30;99.90
15617;DHT22;7908;51.688;7.130;2023-07-28T04:03:36;17.30;99.90
15617;DHT22;7908;51.688;7.130;2023-07-28T04:06:09;17.30;99.90
15617;DHT22;7908;51.688;7.130;2023-07-28T04:08:38;17.30;99.90
15617;DHT22;7908;51.688;7.130;2023-07-28T04:11:07;17.30;99.90
15617;DHT22;7908;51.688;7.130;2023-07-28T04:13:35;17.30;99.90
15617;DHT22;7908;51.688;7.130;2023-07-28T04:16:04;17.30;99.90
15617;DHT22;7908;51.688;7.130;2023-07-28T04:18:32;17.30;99.90
15617;DHT22;7908;51.688;7.130;2023-07-28T04:21:02;17.30;99.90
15617;DHT22;7908;51.688;7.130;2023-07-28T04:23:32;17.40;99.90
15617;DHT22;7908;51.688;7.130;2023-07-28T04:26:01;17.40;99.90
15617;DHT22;7908;51.688;7.130;2023-07-28T04:28:28;17.40;99.90
15617;DHT22;7908;51.688;7.130;2023-07-28T04:30:57;17.40;99.90
15617;DHT22;7908;51.688;7.130;2023-07-28T04:33:26;17.40;99.90
15617;DHT22;7908;51.688;7.130;2023-07-28T04:35:54;17.40;99.90
15617;DHT22;7908;51.688;7.130;2023-07-28T04:38:24;17.40;99.90
15617;DHT22;7908;51.688;7.130;2023-07-28T04:40:52;17.40;99.90
15617;DHT22;7908;51.688;7.130;2023-07-28T04:43:21;17.40;99.90
15617;DHT22;7908;51.688;7.130;2023-07-28T04:45:49;17.50;99.90
15617;DHT22;7908;51.688;7.130;2023-07-28T04:48:18;17.50;99.90
15617;DHT22;7908;51.688;7.130;2023-07-28T04:50:46;17.50;99.90
15617;DHT22;7908;51.688;7.130;2023-07-28T04:53:15;17.50;99.90
15617;DHT22;7908;51.688;7.130;2023-07-28T04:55:45;17.50;99.90
15617;DHT22;7908;51.688;7.130;2023-07-28T04:58:13;17.50;99.90
15617;DHT22;7908;51.688;7.130;2023-07-28T05:00:41;17.50;99.90
15617;DHT22;7908;51.688;7.130;2023-07-28T05:03:10;17.50;99.90
15617;DHT22;7908;51.688;7.130;2023-07-28T05:05:38;17.50;99.90
15617;DHT22;7908;51.688;7.130;2023-07-28T05:08:06;17.60;99.90
15617;DHT22;7908;51.688;7.130;2023-07-28T05:10:35;17.60;99.90
15617;DHT22;7908;51.688;7.130;2023-07-28T05:13:05;17.60;99.90
15617;DHT22;7908;51.688;7.130;2023-07-28T05:15:33;17.60;99.90
15617;DHT22;7908;51.688;7.130;2023-07-28T05:18:02;17.60;99.90
15617;DHT22;7908;51.688;7.130;2023-07-28T05:20:32;17.60;99.90
15617;DHT22;7908;51.688;7.130;2023-07-28T05:23:05;17.70;99.90
15617;DHT22;7908;51.688;7.130;2023-07-28T05:25:37;17.70;99.90
15617;DHT22;7908;51.688;7.130;2023-07-28T05:28:07;17.70;99.90
15617;DHT22;7908;51.688;7.130;2023-07-28T05:30:36;17.80;99.90
15617;DHT22;7908;51.688;7.130;2023-07-28T05:33:04;17.80;99.90
15617;DHT22;7908;51.688;7.130;2023-07-28T05:35:33;17.80;99.90
15617;DHT22;7908;51.688;7.130;2023-07-28T05:38:01;17.90;99.90
15617;DHT22;7908;51.688;7.130;2023-07-28T05:40:30;17.80;99.90
15617;DHT22;7908;51.688;7.130;2023-07-28T05:42:58;17.90;99.90
15617;DHT22;7908;51.688;7.130;2023-07-28T05:45:28;17.80;99.90
15617;DHT22;7908;51.688;7.130;2023-07-28T05:47:57;17.80;99.90
15617;DHT22;7908;51.688;7.130;2023-07-28T05:50:24;17.80;99.90
15617;DHT22;7908;51.688;7.130;2023-07-28T05:52:52;17.80;99.90
15617;DHT22;7908;51.688;7.130;2023-07-28T05:55:21;17.90;99.90
15617;DHT22;7908;51.688;7.130;2023-07-28T05:57:49;17.90;99.90
15617;DHT22;7908;51.688;7.130;2023-07-28T06:00:19;17.90;99.90
15617;DHT22;7908;51.688;7.130;2023-07-28T06:02:50;17.90;99.90
15617;DHT22;7908;51.688;7.130;2023-07-28T06:05:19;17.90;99.90
15617;DHT22;7908;51.688;7.130;2023-07-28T06:07:47;17.90;99.90
15617;DHT22;7908;51.688;7.130;2023-07-28T06:10:16;18.00;99.90
15617;DHT22;7908;51.688;7.130;2023-07-28T06:12:44;18.00;99.90
15617;DHT22;7908;51.688;7.130;2023-07-28T06:15:13;18.00;99.90
15617;DHT22;7908;51.688;7.130;2023-07-28T06:17:42;18.00;99.90
15617;DHT22;7908;51.688;7.130;2023-07-28T06:20:12;18.10;99.90
15617;DHT22;7908;51.688;7.130;2023-07-28T06:22:41;18.10;99.90
15617;DHT22;7908;51.688;7.130;2023-07-28T06:25:09;18.10;99.90
15617;DHT22;7908;51.688;7.130;2023-07-28T06:27:38;18.20;99.90
15617;DHT22;7908;51.688;7.130;2023-07-28T06:30:08;18.20;99.90
15617;DHT22;7908;51.688;7.130;2023-07-28T06:32:36;18.20;99.90
15617;DHT22;7908;51.688;7.130;2023-07-28T06:35:06;18.20;99.90
15617;DHT22;7908;51.688;7.130;2023-07-28T06:37:37;18.10;99.90
15617;DHT22;7908;51.688;7.130;2023-07-28T06:40:07;18.20;99.90
15617;DHT22;7908;51.688;7.130;2023-07-28T06:42:36;18.30;99.90
15617;DHT22;7908;51.688;7.130;2023-07-28T06:45:05;18.30;99.90
15617;DHT22;7908;51.688;7.130;2023-07-28T06:47:34;18.30;99.90
15617;DHT22;7908;51.688;7.130;2023-07-28T06:50:03;18.30;99.90
15617;DHT22;7908;51.688;7.130;2023-07-28T06:52:32;18.30;99.90
15617;DHT22;7908;51.688;7.130;2023-07-28T06:55:02;18.30;99.90
15617;DHT22;7908;51.688;7.130;2023-07-28T06:57:32;18.20;99.90
15617;DHT22;7908;51.688;7.130;2023-07-28T07:00:04;18.20;99.90
15617;DHT22;7908;51.688;7.130;2023-07-28T07:02:36;18.20;99.90
15617;DHT22;7908;51.688;7.130;2023-07-28T07:05:05;18.20;99.90
15617;DHT22;7908;51.688;7.130;2023-07-28T07:07:34;18.20;99.90
15617;DHT22;7908;51.688;7.130;2023-07-28T07:10:08;18.20;99.90
15617;DHT22;7908;51.688;7.130;2023-07-28T07:12:36;18.30;99.90
15617;DHT22;7908;51.688;7.130;2023-07-28T07:15:06;18.30;99.90
15617;DHT22;7908;51.688;7.130;2023-07-28T07:17:35;18.30;99.90
15617;DHT22;7908;51.688;7.130;2023-07-28T07:20:06;18.30;99.90
15617;DHT22;7908;51.688;7.130;2023-07-28T07:22:36;18.20;99.90
15617;DHT22;7908;51.688;7.130;2023-07-28T07:25:06;18.20;99.90
15617;DHT22;7908;51.688;7.130;2023-07-28T07:27:35;18.30;99.90
15617;DHT22;7908;51.688;7.130;2023-07-28T07:30:05;18.40;99.90
15617;DHT22;7908;51.688;7.130;2023-07-28T07:32:34;18.50;99.90
15617;DHT22;7908;51.688;7.130;2023-07-28T07:35:06;18.50;99.90
15617;DHT22;7908;51.688;7.130;2023-07-28T07:37:35;18.60;99.90
15617;DHT22;7908;51.688;7.130;2023-07-28T07:40:06;18.70;99.90
15617;DHT22;7908;51.688;7.130;2023-07-28T07:42:42;18.70;99.90
15617;DHT22;7908;51.688;7.130;2023-07-28T07:45:11;18.80;99.90
15617;DHT22;7908;51.688;7.130;2023-07-28T07:47:40;18.80;99.90
15617;DHT22;7908;51.688;7.130;2023-07-28T07:50:10;18.90;99.90
15617;DHT22;7908;51.688;7.130;2023-07-28T07:52:39;18.90;99.90
15617;DHT22;7908;51.688;7.130;2023-07-28T07:55:10;18.90;99.90
15617;DHT22;7908;51.688;7.130;2023-07-28T07:57:39;18.90;99.90
15617;DHT22;7908;51.688;7.130;2023-07-28T08:00:09;19.00;99.90
15617;DHT22;7908;51.688;7.130;2023-07-28T08:02:39;19.00;99.90
15617;DHT22;7908;51.688;7.130;2023-07-28T08:05:12;19.00;99.90
15617;DHT22;7908;51.688;7.130;2023-07-28T08:07:41;19.00;99.90
15617;DHT22;7908;51.688;7.130;2023-07-28T08:10:11;19.00;99.90
15617;DHT22;7908;51.688;7.130;2023-07-28T08:12:39;19.00;99.90
15617;DHT22;7908;51.688;7.130;2023-07-28T08:15:09;19.00;99.90
15617;DHT22;7908;51.688;7.130;2023-07-28T08:17:37;19.10;99.90
15617;DHT22;7908;51.688;7.130;2023-07-28T08:20:07;19.10;99.90
15617;DHT22;7908;51.688;7.130;2023-07-28T08:22:36;19.20;99.90
15617;DHT22;7908;51.688;7.130;2023-07-28T08:25:05;19.30;99.90
15617;DHT22;7908;51.688;7.130;2023-07-28T08:27:36;19.30;99.90
15617;DHT22;7908;51.688;7.130;2023-07-28T08:30:06;19.40;99.90
15617;DHT22;7908;51.688;7.130;2023-07-28T08:32:34;19.50;99.90
15617;DHT22;7908;51.688;7.130;2023-07-28T08:35:04;19.60;99.90
15617;DHT22;7908;51.688;7.130;2023-07-28T08:37:33;19.60;99.90
15617;DHT22;7908;51.688;7.130;2023-07-28T08:40:01;19.70;99.90
15617;DHT22;7908;51.688;7.130;2023-07-28T08:42:38;19.70;99.90
15617;DHT22;7908;51.688;7.130;2023-07-28T08:45:09;19.70;99.90
15617;DHT22;7908;51.688;7.130;2023-07-28T08:47:38;19.70;99.90
15617;DHT22;7908;51.688;7.130;2023-07-28T08:50:07;19.70;99.90
15617;DHT22;7908;51.688;7.130;2023-07-28T08:52:36;19.60;99.90
15617;DHT22;7908;51.688;7.130;2023-07-28T08:55:07;19.50;99.90
15617;DHT22;7908;51.688;7.130;2023-07-28T08:57:37;19.60;99.90
15617;DHT22;7908;51.688;7.130;2023-07-28T09:00:11;19.50;99.90
15617;DHT22;7908;51.688;7.130;2023-07-28T09:02:41;19.50;99.90
15617;DHT22;7908;51.688;7.130;2023-07-28T09:05:18;19.60;99.90
15617;DHT22;7908;51.688;7.130;2023-07-28T09:07:48;19.50;99.90
15617;DHT22;7908;51.688;7.130;2023-07-28T09:10:17;19.50;99.90
15617;DHT22;7908;51.688;7.130;2023-07-28T09:12:48;19.50;99.90
15617;DHT22;7908;51.688;7.130;2023-07-28T09:15:17;19.60;99.90
15617;DHT22;7908;51.688;7.130;2023-07-28T09:17:46;19.70;99.90
15617;DHT22;7908;51.688;7.130;2023-07-28T09:20:16;19.80;99.90
15617;DHT22;7908;51.688;7.130;2023-07-28T09:22:45;19.90;99.90
15617;DHT22;7908;51.688;7.130;2023-07-28T09:25:17;20.00;99.90
15617;DHT22;7908;51.688;7.130;2023-07-28T09:27:52;20.10;99.90
15617;DHT22;7908;51.688;7.130;2023-07-28T09:30:21;20.10;99.90
15617;DHT22;7908;51.688;7.130;2023-07-28T09:32:52;20.20;99.90
15617;DHT22;7908;51.688;7.130;2023-07-28T09:35:22;20.40;99.90
15617;DHT22;7908;51.688;7.130;2023-07-28T09:37:51;20.40;99.90
15617;DHT22;7908;51.688;7.130;2023-07-28T09:40:23;20.70;99.90
15617;DHT22;7908;51.688;7.130;2023-07-28T09:42:53;20.80;99.90
15617;DHT22;7908;51.688;7.130;2023-07-28T09:45:23;20.80;99.90
15617;DHT22;7908;51.688;7.130;2023-07-28T09:48:06;20.90;99.90
15617;DHT22;7908;51.688;7.130;2023-07-28T09:50:38;20.90;99.90
15617;DHT22;7908;51.688;7.130;2023-07-28T09:53:09;20.90;99.90
15617;DHT22;7908;51.688;7.130;2023-07-28T09:55:39;21.00;99.90
15617;DHT22;7908;51.688;7.130;2023-07-28T09:58:12;21.10;99.90
15617;DHT22;7908;51.688;7.130;2023-07-28T10:00:44;21.10;99.90
15617;DHT22;7908;51.688;7.130;2023-07-28T10:03:14;21.20;99.90
15617;DHT22;7908;51.688;7.130;2023-07-28T10:05:44;21.20;99.90
15617;DHT22;7908;51.688;7.130;2023-07-28T10:08:13;21.30;99.90
15617;DHT22;7908;51.688;7.130;2023-07-28T10:10:42;21.40;99.90
15617;DHT22;7908;51.688;7.130;2023-07-28T10:13:22;21.50;99.90
15617;DHT22;7908;51.688;7.130;2023-07-28T10:15:51;21.60;99.90
15617;DHT22;7908;51.688;7.130;2023-07-28T10:18:20;21.70;99.90
15617;DHT22;7908;51.688;7.130;2023-07-28T10:20:49;21.70;99.90
15617;DHT22;7908;51.688;7.130;2023-07-28T10:23:21;21.80;99.90
15617;DHT22;7908;51.688;7.130;2023-07-28T10:25:57;21.80;99.90
15617;DHT22;7908;51.688;7.130;2023-07-28T10:28:30;21.70;99.90
15617;DHT22;7908;51.688;7.130;2023-07-28T10:31:01;21.60;99.90
15617;DHT22;7908;51.688;7.130;2023-07-28T10:33:31;21.60;99.90
15617;DHT22;7908;51.688;7.130;2023-07-28T10:36:14;21.70;99.90
15617;DHT22;7908;51.688;7.130;2023-07-28T10:38:43;21.80;99.90
15617;DHT22;7908;51.688;7.130;2023-07-28T10:41:14;21.80;99.90
15617;DHT22;7908;51.688;7.130;2023-07-28T10:43:48;21.70;99.90
15617;DHT22;7908;51.688;7.130;2023-07-28T10:46:18;21.70;99.90
15617;DHT22;7908;51.688;7.130;2023-07-28T10:48:48;21.60;99.90
15617;DHT22;7908;51.688;7.130;2023-07-28T10:51:21;21.50;99.90
15617;DHT22;7908;51.688;7.130;2023-07-28T10:53:55;21.60;99.90
15617;DHT22;7908;51.688;7.130;2023-07-28T10:56:25;21.70;99.90
15617;DHT22;7908;51.688;7.130;2023-07-28T10:58:58;21.70;99.90
15617;DHT22;7908;51.688;7.130;2023-07-28T11:01:31;21.80;99.90
15617;DHT22;7908;51.688;7.130;2023-07-28T11:04:12;21.80;99.90
15617;DHT22;7908;51.688;7.130;2023-07-28T11:06:42;21.80;99.90
15617;DHT22;7908;51.688;7.130;2023-07-28T11:09:12;21.70;99.90
15617;DHT22;7908;51.688;7.130;2023-07-28T11:11:42;21.70;99.90
15617;DHT22;7908;51.688;7.130;2023-07-28T11:14:16;21.80;99.90
15617;DHT22;7908;51.688;7.130;2023-07-28T11:16:46;21.80;99.90
15617;DHT22;7908;51.688;7.130;2023-07-28T11:19:16;21.90;99.90
15617;DHT22;7908;51.688;7.130;2023-07-28T11:21:54;22.00;99.90
15617;DHT22;7908;51.688;7.130;2023-07-28T11:24:23;21.90;99.90
15617;DHT22;7908;51.688;7.130;2023-07-28T11:26:53;21.90;99.90
15617;DHT22;7908;51.688;7.130;2023-07-28T11:29:24;21.80;99.90
15617;DHT22;7908;51.688;7.130;2023-07-28T11:31:54;21.90;99.90
15617;DHT22;7908;51.688;7.130;2023-07-28T11:34:22;21.90;99.90
15617;DHT22;7908;51.688;7.130;2023-07-28T11:36:51;22.00;99.90
15617;DHT22;7908;51.688;7.130;2023-07-28T11:39:20;22.00;99.90
15617;DHT22;7908;51.688;7.130;2023-07-28T11:41:51;22.10;99.90
15617;DHT22;7908;51.688;7.130;2023-07-28T11:44:22;22.10;99.90
15617;DHT22;7908;51.688;7.130;2023-07-28T11:46:52;22.10;99.90
15617;DHT22;7908;51.688;7.130;2023-07-28T11:49:24;22.20;99.90
15617;DHT22;7908;51.688;7.130;2023-07-28T11:51:54;22.20;99.90
15617;DHT22;7908;51.688;7.130;2023-07-28T11:54:26;22.30;99.90
15617;DHT22;7908;51.688;7.130;2023-07-28T11:56:56;22.40;99.90
15617;DHT22;7908;51.688;7.130;2023-07-28T11:59:25;22.50;99.90
15617;DHT22;7908;51.688;7.130;2023-07-28T12:01:56;22.40;99.90
15617;DHT22;7908;51.688;7.130;2023-07-28T12:04:28;22.50;99.90
15617;DHT22;7908;51.688;7.130;2023-07-28T12:07:01;22.40;99.90
15617;DHT22;7908;51.688;7.130;2023-07-28T12:09:48;22.40;99.90
15617;DHT22;7908;51.688;7.130;2023-07-28T12:12:23;22.40;99.90
15617;DHT22;7908;51.688;7.130;2023-07-28T12:14:53;22.40;99.90
15617;DHT22;7908;51.688;7.130;2023-07-28T12:17:26;22.60;99.90
15617;DHT22;7908;51.688;7.130;2023-07-28T12:20:15;22.90;99.90
15617;DHT22;7908;51.688;7.130;2023-07-28T12:22:45;23.00;99.90
15617;DHT22;7908;51.688;7.130;2023-07-28T12:25:14;22.90;99.90
15617;DHT22;7908;51.688;7.130;2023-07-28T12:27:43;22.90;99.90
15617;DHT22;7908;51.688;7.130;2023-07-28T12:30:14;23.10;99.90
15617;DHT22;7908;51.688;7.130;2023-07-28T12:32:47;23.20;99.90
15617;DHT22;7908;51.688;7.130;2023-07-28T12:35:19;23.20;99.90
15617;DHT22;7908;51.688;7.130;2023-07-28T12:38:10;23.20;99.90
15617;DHT22;7908;51.688;7.130;2023-07-28T12:40:41;23.20;99.90
15617;DHT22;7908;51.688;7.130;2023-07-28T12:43:13;23.20;99.90
15617;DHT22;7908;51.688;7.130;2023-07-28T12:45:45;23.30;99.90
15617;DHT22;7908;51.688;7.130;2023-07-28T12:48:18;23.30;99.90
15617;DHT22;7908;51.688;7.130;2023-07-28T12:50:48;23.40;99.90
15617;DHT22;7908;51.688;7.130;2023-07-28T12:53:29;23.50;99.90
15617;DHT22;7908;51.688;7.130;2023-07-28T12:55:59;23.50;99.90
15617;DHT22;7908;51.688;7.130;2023-07-28T12:58:28;23.40;99.90
15617;DHT22;7908;51.688;7.130;2023-07-28T13:01:01;23.30;99.90
15617;DHT22;7908;51.688;7.130;2023-07-28T13:03:33;23.40;99.90
15617;DHT22;7908;51.688;7.130;2023-07-28T13:06:03;23.50;99.90
15617;DHT22;7908;51.688;7.130;2023-07-28T13:08:31;23.60;99.90
15617;DHT22;7908;51.688;7.130;2023-07-28T13:11:03;23.60;99.90
15617;DHT22;7908;51.688;7.130;2023-07-28T13:13:36;23.50;99.90
15617;DHT22;7908;51.688;7.130;2023-07-28T13:16:07;23.40;99.90
15617;DHT22;7908;51.688;7.130;2023-07-28T13:18:41;23.40;99.90
15617;DHT22;7908;51.688;7.130;2023-07-28T13:21:11;23.50;99.90
15617;DHT22;7908;51.688;7.130;2023-07-28T13:23:40;23.40;99.90
15617;DHT22;7908;51.688;7.130;2023-07-28T13:26:09;23.40;99.90
15617;DHT22;7908;51.688;7.130;2023-07-28T13:28:38;23.50;99.90
15617;DHT22;7908;51.688;7.130;2023-07-28T13:31:10;23.50;99.90
15617;DHT22;7908;51.688;7.130;2023-07-28T13:33:40;23.60;99.90
15617;DHT22;7908;51.688;7.130;2023-07-28T13:36:09;23.60;99.90
15617;DHT22;7908;51.688;7.130;2023-07-28T13:38:38;23.60;99.90
15617;DHT22;7908;51.688;7.130;2023-07-28T13:41:07;23.60;99.90
15617;DHT22;7908;51.688;7.130;2023-07-28T13:43:36;23.60;99.90
15617;DHT22;7908;51.688;7.130;2023-07-28T13:46:05;23.70;99.90
15617;DHT22;7908;51.688;7.130;2023-07-28T13:48:37;23.80;99.90
15617;DHT22;7908;51.688;7.130;2023-07-28T13:51:10;24.10;99.90
15617;DHT22;7908;51.688;7.130;2023-07-28T13:53:42;24.30;99.90
15617;DHT22;7908;51.688;7.130;2023-07-28T13:56:31;24.50;99.90
15617;DHT22;7908;51.688;7.130;2023-07-28T14:02:53;24.70;99.90
15617;DHT22;7908;51.688;7.130;2023-07-28T14:05:22;24.60;99.90
15617;DHT22;7908;51.688;7.130;2023-07-28T14:07:52;24.60;99.90
15617;DHT22;7908;51.688;7.130;2023-07-28T14:10:21;24.60;99.90
15617;DHT22;7908;51.688;7.130;2023-07-28T14:12:51;24.70;99.90
15617;DHT22;7908;51.688;7.130;2023-07-28T14:15:20;24.90;99.90
15617;DHT22;7908;51.688;7.130;2023-07-28T14:17:48;25.10;99.90
15617;DHT22;7908;51.688;7.130;2023-07-28T14:20:18;25.20;99.90
15617;DHT22;7908;51.688;7.130;2023-07-28T14:22:46;25.20;99.90
15617;DHT22;7908;51.688;7.130;2023-07-28T14:25:18;25.20;99.90
15617;DHT22;7908;51.688;7.130;2023-07-28T14:27:47;25.20;99.90
15617;DHT22;7908;51.688;7.130;2023-07-28T14:30:20;25.20;99.90
15617;DHT22;7908;51.688;7.130;2023-07-28T14:32:48;25.20;99.90
15617;DHT22;7908;51.688;7.130;2023-07-28T14:35:17;25.20;99.90
15617;DHT22;7908;51.688;7.130;2023-07-28T14:37:46;25.10;99.90
15617;DHT22;7908;51.688;7.130;2023-07-28T14:40:17;25.10;99.90
15617;DHT22;7908;51.688;7.130;2023-07-28T14:42:49;25.10;99.90
15617;DHT22;7908;51.688;7.130;2023-07-28T14:45:18;25.10;99.90
15617;DHT22;7908;51.688;7.130;2023-07-28T14:47:48;25.20;99.90
15617;DHT22;7908;51.688;7.130;2023-07-28T14:50:17;25.30;99.90
15617;DHT22;7908;51.688;7.130;2023-07-28T14:52:46;25.30;99.90
15617;DHT22;7908;51.688;7.130;2023-07-28T14:55:15;25.20;99.90
15617;DHT22;7908;51.688;7.130;2023-07-28T14:57:45;25.10;99.90
15617;DHT22;7908;51.688;7.130;2023-07-28T15:00:14;25.10;99.90
15617;DHT22;7908;51.688;7.130;2023-07-28T15:02:43;25.10;99.90
15617;DHT22;7908;51.688;7.130;2023-07-28T15:05:11;25.20;99.90
15617;DHT22;7908;51.688;7.130;2023-07-28T15:07:40;25.30;99.90
15617;DHT22;7908;51.688;7.130;2023-07-28T15:10:10;25.30;99.90
15617;DHT22;7908;51.688;7.130;2023-07-28T15:12:38;25.40;99.90
15617;DHT22;7908;51.688;7.130;2023-07-28T15:15:12;25.40;99.90
15617;DHT22;7908;51.688;7.130;2023-07-28T15:17:41;25.50;99.90
15617;DHT22;7908;51.688;7.130;2023-07-28T15:20:10;25.50;99.90
15617;DHT22;7908;51.688;7.130;2023-07-28T15:22:39;25.50;99.90
15617;DHT22;7908;51.688;7.130;2023-07-28T15:25:08;25.40;99.90
15617;DHT22;7908;51.688;7.130;2023-07-28T15:27:37;25.40;99.90
15617;DHT22;7908;51.688;7.130;2023-07-28T15:30:06;25.30;99.90
15617;DHT22;7908;51.688;7.130;2023-07-28T15:32:37;25.30;99.90
15617;DHT22;7908;51.688;7.130;2023-07-28T15:35:07;25.20;99.90
15617;DHT22;7908;51.688;7.130;2023-07-28T15:37:36;25.10;99.90
15617;DHT22;7908;51.688;7.130;2023-07-28T15:40:07;24.90;99.90
15617;DHT22;7908;51.688;7.130;2023-07-28T15:42:36;24.80;99.90
15617;DHT22;7908;51.688;7.130;2023-07-28T15:45:06;24.70;99.90
15617;DHT22;7908;51.688;7.130;2023-07-28T15:47:36;24.60;99.90
15617;DHT22;7908;51.688;7.130;2023-07-28T15:50:06;24.60;99.90
15617;DHT22;7908;51.688;7.130;2023-07-28T15:52:35;24.50;99.90
15617;DHT22;7908;51.688;7.130;2023-07-28T15:55:05;24.50;99.90
15617;DHT22;7908;51.688;7.130;2023-07-28T15:57:34;24.60;99.90
15617;DHT22;7908;51.688;7.130;2023-07-28T16:00:05;24.60;99.90
15617;DHT22;7908;51.688;7.130;2023-07-28T16:02:38;24.50;99.90
15617;DHT22;7908;51.688;7.130;2023-07-28T16:05:08;24.50;99.90
15617;DHT22;7908;51.688;7.130;2023-07-28T16:07:36;24.50;99.90